Time;durP1;ratioP1;P1;durP2;ratioP2;P2;SDS_P1;SDS_P2;PMS_P1;PMS_P2;Temp;Humidity;BMP_temperature;BMP_pressure;BME280_temperature;BME280_humidity;BME280_pressure;Samples;Min_cycle;Max_cycle;Signal;HPM_P1;HPM_P2
2022/08/21 00:02:27;;;;;;;6.60;3.33;;;18.60;71.40;;;;;;5040990;28;20233;-70
2022/08/21 00:04:53;;;;;;;5.67;2.80;;;18.50;72.00;;;;;;5041499;28;20197;-70
2022/08/21 00:07:19;;;;;;;4.97;3.20;;;18.60;71.70;;;;;;5039907;28;20993;-70
2022/08/21 00:09:45;;;;;;;5.43;3.33;;;18.70;71.60;;;;;;5037987;28;20471;-71
2022/08/21 00:12:11;;;;;;;4.60;3.20;;;18.60;71.70;;;;;;5038283;28;20940;-71
2022/08/21 00:14:37;;;;;;;4.77;3.20;;;18.60;71.80;;;;;;5042144;28;20446;-71
2022/08/21 00:17:04;;;;;;;6.17;3.13;;;18.60;71.60;;;;;;5037959;28;20445;-70
2022/08/21 00:19:31;;;;;;;4.93;3.00;;;18.50;71.80;;;;;;5043499;28;20599;-70
2022/08/21 00:21:57;;;;;;;8.37;3.53;;;18.50;71.60;;;;;;5041163;28;20428;-70
2022/08/21 00:24:23;;;;;;;9.17;3.00;;;18.60;71.10;;;;;;5048777;28;21143;-69
2022/08/21 00:26:50;;;;;;;5.40;3.20;;;18.50;71.30;;;;;;5040799;28;20222;-69
2022/08/21 00:29:15;;;;;;;5.37;3.43;;;18.40;71.40;;;;;;5042834;28;20450;-70
2022/08/21 00:31:42;;;;;;;5.33;3.40;;;18.50;71.30;;;;;;5046047;28;20932;-71
2022/08/21 00:34:08;;;;;;;8.23;4.10;;;18.50;71.70;;;;;;5048598;28;20256;-69
2022/08/21 00:36:35;;;;;;;5.87;3.40;;;18.50;71.80;;;;;;5034094;28;20443;-69
2022/08/21 00:39:02;;;;;;;4.93;3.60;;;18.50;72.60;;;;;;5047085;28;20500;-69
2022/08/21 00:41:28;;;;;;;6.87;4.30;;;18.50;72.60;;;;;;5055794;28;20431;-71
2022/08/21 00:43:54;;;;;;;10.23;3.43;;;18.40;73.20;;;;;;5061847;28;20431;-71
2022/08/21 00:46:20;;;;;;;7.13;3.70;;;18.40;73.00;;;;;;5062875;28;20476;-70
2022/08/21 00:48:46;;;;;;;4.37;3.30;;;18.30;73.60;;;;;;5050652;28;20463;-71
2022/08/21 00:51:22;;;;;;;8.53;3.50;;;18.30;73.70;;;;;;5039991;28;20186;-71
2022/08/21 00:53:52;;;;;;;6.73;3.30;;;18.10;74.00;;;;;;5044013;28;20747;-71
2022/08/21 00:56:18;;;;;;;3.47;2.63;;;18.00;74.50;;;;;;5038557;28;20457;-69
2022/08/21 00:58:45;;;;;;;4.67;3.33;;;17.90;74.90;;;;;;5041646;28;20479;-70
2022/08/21 01:01:12;;;;;;;6.80;3.40;;;17.80;75.20;;;;;;5042312;28;20940;-71
2022/08/21 01:03:38;;;;;;;5.10;3.40;;;17.70;75.20;;;;;;5035812;28;20435;-72
2022/08/21 01:06:05;;;;;;;7.30;3.63;;;17.60;75.70;;;;;;5041239;28;20585;-70
2022/08/21 01:08:32;;;;;;;9.00;2.83;;;17.60;75.80;;;;;;5036213;28;20463;-70
2022/08/21 01:10:59;;;;;;;6.17;3.20;;;17.70;75.70;;;;;;5040955;28;20477;-71
2022/08/21 01:13:27;;;;;;;7.77;3.20;;;17.70;75.70;;;;;;5036705;28;20427;-69
2022/08/21 01:15:54;;;;;;;7.73;3.30;;;17.70;75.50;;;;;;5042836;28;20436;-69
2022/08/21 01:18:21;;;;;;;6.27;3.33;;;17.60;75.90;;;;;;5036537;28;20474;-72
2022/08/21 01:20:58;;;;;;;5.13;3.23;;;17.60;75.90;;;;;;5046454;28;20431;-70
2022/08/21 01:23:24;;;;;;;6.60;3.70;;;17.50;76.10;;;;;;5033464;28;20430;-71
2022/08/21 01:25:50;;;;;;;10.40;3.63;;;17.60;75.80;;;;;;5043064;28;20549;-69
2022/08/21 01:28:15;;;;;;;6.27;3.57;;;17.60;75.90;;;;;;5036734;28;20192;-70
2022/08/21 01:30:43;;;;;;;5.87;3.23;;;17.50;76.10;;;;;;5042542;28;20188;-70
2022/08/21 01:33:09;;;;;;;5.90;2.93;;;17.60;75.80;;;;;;5042619;28;20189;-71
2022/08/21 01:35:35;;;;;;;6.80;3.80;;;17.50;75.90;;;;;;5039869;28;20412;-69
2022/08/21 01:38:00;;;;;;;6.23;3.50;;;17.40;76.40;;;;;;5035946;28;20426;-69
2022/08/21 01:40:26;;;;;;;5.90;3.43;;;17.30;76.80;;;;;;5045436;28;20212;-69
2022/08/21 01:42:53;;;;;;;4.57;3.30;;;17.50;76.10;;;;;;5042113;28;20182;-71
2022/08/21 01:45:19;;;;;;;6.67;3.37;;;17.50;75.80;;;;;;5041573;28;20426;-70
2022/08/21 01:47:45;;;;;;;4.83;3.00;;;17.40;75.90;;;;;;5038655;28;20476;-70
2022/08/21 01:50:14;;;;;;;5.93;3.47;;;17.40;76.10;;;;;;5043309;28;20549;-70
2022/08/21 01:52:40;;;;;;;6.60;3.40;;;17.40;75.90;;;;;;5035408;28;20435;-69
2022/08/21 01:55:07;;;;;;;7.63;3.20;;;17.40;75.80;;;;;;5045848;28;20516;-69
2022/08/21 01:57:34;;;;;;;4.63;3.03;;;17.30;76.10;;;;;;5044096;28;20817;-72
2022/08/21 02:00:00;;;;;;;6.10;3.20;;;17.20;76.40;;;;;;5035249;28;20547;-70
2022/08/21 02:02:25;;;;;;;5.30;3.00;;;17.30;76.10;;;;;;5038252;28;20443;-69
2022/08/21 02:04:51;;;;;;;8.20;3.20;;;17.20;76.50;;;;;;5041105;28;20416;-69
2022/08/21 02:07:16;;;;;;;6.23;3.50;;;17.20;76.50;;;;;;5044007;28;20556;-69
2022/08/21 02:09:42;;;;;;;5.37;3.13;;;17.10;76.70;;;;;;5038666;28;20210;-71
2022/08/21 02:12:09;;;;;;;4.60;3.20;;;17.00;77.00;;;;;;5039817;28;20203;-71
2022/08/21 02:14:35;;;;;;;5.30;3.30;;;17.00;77.30;;;;;;5040212;28;20188;-71
2022/08/21 02:17:01;;;;;;;6.40;4.00;;;17.00;77.30;;;;;;5044696;28;20426;-69
2022/08/21 02:19:26;;;;;;;6.37;3.20;;;17.00;77.40;;;;;;5037258;28;21170;-70
2022/08/21 02:21:52;;;;;;;6.90;3.97;;;17.00;77.40;;;;;;5042357;28;20189;-70
2022/08/21 02:24:17;;;;;;;8.60;3.43;;;17.00;77.60;;;;;;5039141;28;20553;-69
2022/08/21 02:26:43;;;;;;;5.47;3.20;;;17.00;77.60;;;;;;5042596;28;20246;-70
2022/08/21 02:29:08;;;;;;;7.83;3.63;;;16.90;77.70;;;;;;5041784;28;20208;-70
2022/08/21 02:31:34;;;;;;;4.57;3.20;;;16.90;78.10;;;;;;5042951;28;20188;-70
2022/08/21 02:34:00;;;;;;;4.80;3.20;;;16.90;78.30;;;;;;5036149;28;20301;-69
2022/08/21 02:36:26;;;;;;;8.13;3.60;;;16.90;78.10;;;;;;5038309;28;20248;-70
2022/08/21 02:38:52;;;;;;;4.90;3.30;;;16.90;78.30;;;;;;5032767;28;20216;-69
2022/08/21 02:41:20;;;;;;;5.70;3.63;;;17.00;77.80;;;;;;5040554;28;20426;-72
2022/08/21 02:43:46;;;;;;;4.20;3.07;;;16.90;78.00;;;;;;5039112;28;20187;-71
2022/08/21 02:46:17;;;;;;;5.27;3.37;;;16.80;78.30;;;;;;5038058;28;21043;-71
2022/08/21 02:48:43;;;;;;;4.77;3.50;;;16.90;78.30;;;;;;5034409;28;20452;-72
2022/08/21 02:51:12;;;;;;;5.70;3.30;;;16.90;78.10;;;;;;5038431;28;20443;-70
2022/08/21 02:53:37;;;;;;;5.40;3.43;;;16.90;78.30;;;;;;5036846;28;20199;-69
2022/08/21 02:56:05;;;;;;;7.27;3.50;;;16.90;78.30;;;;;;5038236;28;20505;-71
2022/08/21 02:58:34;;;;;;;5.50;3.77;;;16.80;78.40;;;;;;5034795;28;20241;-70
2022/08/21 03:01:00;;;;;;;10.33;4.20;;;16.70;78.70;;;;;;5043369;28;20844;-69
2022/08/21 03:03:28;;;;;;;6.87;3.80;;;16.70;79.20;;;;;;5040256;28;20430;-70
2022/08/21 03:05:54;;;;;;;5.17;3.17;;;16.60;79.50;;;;;;5043403;28;20456;-71
2022/08/21 03:08:22;;;;;;;5.47;3.80;;;16.70;79.20;;;;;;5034292;28;20516;-71
2022/08/21 03:10:49;;;;;;;5.07;3.63;;;16.80;78.90;;;;;;5040482;28;20419;-71
2022/08/21 03:13:16;;;;;;;6.90;3.80;;;16.70;79.20;;;;;;5041941;28;20532;-70
2022/08/21 03:15:42;;;;;;;4.47;3.40;;;16.70;79.30;;;;;;5050719;28;20493;-70
2022/08/21 03:18:09;;;;;;;4.37;3.27;;;16.70;79.20;;;;;;5043787;28;20438;-70
2022/08/21 03:20:37;;;;;;;4.30;3.27;;;16.70;79.20;;;;;;5036176;28;20437;-70
2022/08/21 03:23:04;;;;;;;7.17;4.10;;;16.60;79.30;;;;;;5046569;28;20418;-71
2022/08/21 03:25:31;;;;;;;5.73;3.63;;;16.70;79.50;;;;;;5055639;28;20411;-69
2022/08/21 03:27:58;;;;;;;4.97;3.73;;;16.50;79.50;;;;;;5074903;28;20435;-70
2022/08/21 03:30:24;;;;;;;8.27;3.60;;;16.50;79.90;;;;;;5065364;28;20439;-70
2022/08/21 03:32:50;;;;;;;5.43;3.70;;;16.40;80.00;;;;;;5053645;28;20439;-69
2022/08/21 03:35:17;;;;;;;4.97;3.70;;;16.40;80.20;;;;;;5051140;28;20552;-69
2022/08/21 03:37:44;;;;;;;5.47;3.93;;;16.50;80.00;;;;;;5038724;28;20849;-71
2022/08/21 03:40:11;;;;;;;6.77;4.07;;;16.40;79.90;;;;;;5039861;28;20549;-68
2022/08/21 03:42:37;;;;;;;6.03;4.20;;;16.50;80.30;;;;;;5042948;28;20430;-69
2022/08/21 03:45:03;;;;;;;5.93;3.90;;;16.50;80.30;;;;;;5042957;28;20521;-69
2022/08/21 03:47:29;;;;;;;4.93;3.70;;;16.30;80.50;;;;;;5044838;28;20506;-71
2022/08/21 03:49:55;;;;;;;7.53;3.70;;;16.20;80.50;;;;;;5040319;28;20463;-69
2022/08/21 03:52:21;;;;;;;7.80;4.03;;;16.20;80.90;;;;;;5037349;28;20275;-71
2022/08/21 03:54:46;;;;;;;5.20;3.93;;;16.10;80.90;;;;;;5039696;28;20412;-70
2022/08/21 03:57:13;;;;;;;3.77;3.03;;;16.10;81.10;;;;;;5038819;28;20183;-69
2022/08/21 03:59:39;;;;;;;5.97;3.73;;;16.10;81.10;;;;;;5036984;28;20802;-71
2022/08/21 04:02:06;;;;;;;6.40;3.60;;;16.10;81.10;;;;;;5037825;28;20502;-68
2022/08/21 04:04:32;;;;;;;7.57;4.20;;;16.00;81.50;;;;;;5047564;28;20198;-70
2022/08/21 04:06:58;;;;;;;4.03;3.17;;;15.90;81.80;;;;;;5038348;28;20517;-70
2022/08/21 04:09:24;;;;;;;8.20;3.70;;;15.80;82.10;;;;;;5037643;28;20455;-71
2022/08/21 04:11:50;;;;;;;12.03;4.40;;;15.80;82.20;;;;;;5040810;28;20294;-71
2022/08/21 04:14:16;;;;;;;6.40;3.90;;;15.70;82.20;;;;;;5042912;28;20506;-70
2022/08/21 04:16:43;;;;;;;6.23;4.03;;;15.70;82.40;;;;;;5038151;28;20188;-70
2022/08/21 04:19:09;;;;;;;5.53;3.70;;;15.70;82.50;;;;;;5044367;28;20483;-70
2022/08/21 04:21:37;;;;;;;12.63;4.23;;;15.70;82.50;;;;;;5038201;28;20955;-70
2022/08/21 04:24:03;;;;;;;8.10;4.23;;;15.60;83.00;;;;;;5045537;28;20955;-70
2022/08/21 04:26:30;;;;;;;9.00;3.80;;;15.60;83.10;;;;;;5035810;28;20460;-69
2022/08/21 04:28:57;;;;;;;5.73;3.97;;;15.50;83.10;;;;;;5042902;28;20527;-71
2022/08/21 04:31:26;;;;;;;7.77;4.20;;;15.60;83.00;;;;;;5034821;28;20788;-70
2022/08/21 04:33:52;;;;;;;7.80;4.07;;;15.60;82.80;;;;;;5042516;28;20427;-71
2022/08/21 04:36:17;;;;;;;7.57;4.23;;;15.50;83.00;;;;;;5033453;28;20422;-71
2022/08/21 04:38:43;;;;;;;7.70;3.80;;;15.50;83.00;;;;;;5039964;28;21012;-69
2022/08/21 04:41:09;;;;;;;6.80;3.57;;;15.50;83.10;;;;;;5036821;28;20233;-70
2022/08/21 04:43:35;;;;;;;8.70;3.87;;;15.60;83.00;;;;;;5040294;28;20193;-70
2022/08/21 04:46:01;;;;;;;7.80;4.20;;;15.50;82.80;;;;;;5048642;28;20202;-70
2022/08/21 04:48:27;;;;;;;6.60;4.70;;;15.50;83.10;;;;;;5038591;28;20439;-70
2022/08/21 04:51:15;;;;;;;10.30;4.10;;;15.50;83.10;;;;;;5047275;28;20198;-69
2022/08/21 04:53:48;;;;;;;8.30;4.07;;;15.60;83.00;;;;;;5035799;28;20443;-71
2022/08/21 04:56:30;;;;;;;5.83;3.80;;;15.60;82.80;;;;;;5042152;28;20419;-70
2022/08/21 04:58:59;;;;;;;8.60;3.97;;;15.50;83.10;;;;;;5036731;28;20474;-71
2022/08/21 05:01:28;;;;;;;8.70;4.10;;;15.50;83.40;;;;;;5044705;28;20435;-72
2022/08/21 05:03:57;;;;;;;8.87;4.20;;;15.50;83.70;;;;;;5036619;28;20439;-71
2022/08/21 05:06:24;;;;;;;7.30;4.40;;;15.40;83.70;;;;;;5044402;28;20507;-70
2022/08/21 05:08:52;;;;;;;9.07;5.00;;;15.40;83.70;;;;;;5033713;28;20456;-71
2022/08/21 05:11:19;;;;;;;7.87;4.30;;;15.50;83.40;;;;;;5042587;28;20446;-70
2022/08/21 05:13:45;;;;;;;9.00;4.13;;;15.50;83.40;;;;;;5039118;28;20457;-70
2022/08/21 05:16:11;;;;;;;10.03;4.40;;;15.50;83.60;;;;;;5041727;28;20514;-69
2022/08/21 05:18:37;;;;;;;8.93;4.33;;;15.50;83.40;;;;;;5035039;28;20225;-70
2022/08/21 05:21:03;;;;;;;7.60;4.13;;;15.50;83.30;;;;;;5039796;28;20423;-69
2022/08/21 05:23:28;;;;;;;7.37;4.33;;;15.50;83.30;;;;;;5037357;28;20184;-71
2022/08/21 05:25:55;;;;;;;6.93;4.00;;;15.50;83.40;;;;;;5041879;28;20294;-71
2022/08/21 05:28:23;;;;;;;7.20;4.10;;;15.60;83.10;;;;;;5032977;28;20775;-71
2022/08/21 05:30:49;;;;;;;7.90;4.13;;;15.60;83.30;;;;;;5038126;28;20428;-70
2022/08/21 05:33:15;;;;;;;9.93;4.50;;;15.50;83.40;;;;;;5043487;28;20804;-70
2022/08/21 05:35:40;;;;;;;5.00;3.70;;;15.60;83.40;;;;;;5039893;28;20437;-70
2022/08/21 05:38:06;;;;;;;6.40;3.83;;;15.60;83.10;;;;;;5048572;28;20306;-71
2022/08/21 05:40:33;;;;;;;5.80;3.93;;;15.80;82.50;;;;;;5039212;28;20270;-71
2022/08/21 05:42:58;;;;;;;5.93;3.90;;;15.90;82.20;;;;;;5042136;28;20916;-69
2022/08/21 05:45:28;;;;;;;6.87;4.10;;;15.90;81.90;;;;;;5040389;28;20459;-70
2022/08/21 05:47:54;;;;;;;9.23;4.10;;;15.90;81.90;;;;;;5045728;28;20212;-71
2022/08/21 05:50:19;;;;;;;8.63;4.77;;;16.00;81.70;;;;;;5042096;28;20464;-70
2022/08/21 05:52:45;;;;;;;7.23;4.00;;;15.90;81.80;;;;;;5044524;28;20193;-71
2022/08/21 05:55:11;;;;;;;9.60;4.60;;;16.00;81.80;;;;;;5040421;28;20667;-70
2022/08/21 05:57:36;;;;;;;6.27;4.13;;;16.10;81.50;;;;;;5043926;28;20192;-70
2022/08/21 06:00:03;;;;;;;9.03;4.10;;;16.20;81.20;;;;;;5036329;28;20234;-71
2022/08/21 06:02:30;;;;;;;6.77;3.90;;;16.20;81.20;;;;;;5038991;28;20185;-71
2022/08/21 06:04:56;;;;;;;6.40;4.20;;;16.20;81.50;;;;;;5038611;28;21329;-71
2022/08/21 06:07:22;;;;;;;6.90;4.10;;;16.30;81.40;;;;;;5041586;28;20981;-71
2022/08/21 06:09:47;;;;;;;8.90;4.50;;;16.40;81.40;;;;;;5039222;28;20497;-71
2022/08/21 06:12:13;;;;;;;8.57;3.40;;;16.50;80.80;;;;;;5044693;28;20192;-70
2022/08/21 06:14:40;;;;;;;6.27;4.10;;;16.60;80.20;;;;;;5046071;28;20267;-71
2022/08/21 06:17:08;;;;;;;10.73;4.73;;;16.70;79.60;;;;;;5040612;28;20192;-71
2022/08/21 06:19:34;;;;;;;6.73;4.20;;;16.80;79.30;;;;;;5039353;28;20508;-71
2022/08/21 06:21:59;;;;;;;5.53;3.67;;;16.90;78.40;;;;;;5046443;28;21064;-70
2022/08/21 06:24:26;;;;;;;7.23;3.93;;;17.10;77.70;;;;;;5037031;28;20188;-71
2022/08/21 06:26:52;;;;;;;7.90;3.63;;;17.20;77.60;;;;;;5039160;28;20249;-71
2022/08/21 06:29:19;;;;;;;9.40;4.57;;;17.30;77.40;;;;;;5037442;28;20474;-71
2022/08/21 06:31:46;;;;;;;5.60;4.10;;;17.40;77.10;;;;;;5041119;28;20427;-70
2022/08/21 06:34:11;;;;;;;6.00;3.77;;;17.50;76.70;;;;;;5040211;28;20445;-72
2022/08/21 06:36:37;;;;;;;9.33;4.40;;;17.60;76.70;;;;;;5043534;28;20466;-70
2022/08/21 06:39:03;;;;;;;8.03;4.60;;;17.80;76.20;;;;;;5038755;28;20254;-71
2022/08/21 06:41:29;;;;;;;8.93;4.43;;;17.90;75.80;;;;;;5041689;28;20277;-71
2022/08/21 06:43:55;;;;;;;6.83;4.10;;;18.00;75.50;;;;;;5038752;28;20508;-71
2022/08/21 06:46:22;;;;;;;8.43;4.43;;;18.10;74.80;;;;;;5038999;28;20465;-71
2022/08/21 06:48:47;;;;;;;4.93;4.00;;;18.10;74.30;;;;;;5041471;28;21013;-70
2022/08/21 06:51:13;;;;;;;9.77;4.67;;;18.20;74.20;;;;;;5036203;28;20453;-71
2022/08/21 06:53:39;;;;;;;8.30;4.37;;;18.30;73.70;;;;;;5041018;28;20273;-71
2022/08/21 06:56:04;;;;;;;7.17;4.63;;;18.30;73.30;;;;;;5041272;28;20575;-71
2022/08/21 06:58:30;;;;;;;10.07;4.63;;;18.40;72.40;;;;;;5040067;28;20254;-70
2022/08/21 07:00:57;;;;;;;6.00;3.93;;;18.40;72.30;;;;;;5048422;28;20192;-70
2022/08/21 07:03:27;;;;;;;9.43;4.90;;;18.50;72.30;;;;;;5040297;28;20225;-71
2022/08/21 07:05:53;;;;;;;6.40;3.90;;;18.60;72.10;;;;;;5039753;28;20469;-69
2022/08/21 07:08:19;;;;;;;8.20;4.27;;;18.70;71.80;;;;;;5041709;28;20449;-70
2022/08/21 07:10:46;;;;;;;9.47;4.67;;;18.80;71.00;;;;;;5042371;28;20433;-71
2022/08/21 07:13:12;;;;;;;9.63;4.60;;;19.00;70.20;;;;;;5044140;28;20464;-70
2022/08/21 07:15:38;;;;;;;8.07;4.77;;;19.10;69.90;;;;;;5043740;28;21021;-71
2022/08/21 07:18:04;;;;;;;11.43;5.03;;;19.20;69.70;;;;;;5051438;28;20443;-70
2022/08/21 07:20:31;;;;;;;7.73;4.77;;;19.20;69.20;;;;;;5043608;28;20224;-70
2022/08/21 07:23:01;;;;;;;7.50;4.57;;;19.20;69.40;;;;;;5039154;28;20544;-72
2022/08/21 07:25:26;;;;;;;7.30;4.90;;;19.40;69.40;;;;;;5041471;28;20588;-71
2022/08/21 07:27:52;;;;;;;8.97;4.80;;;19.40;69.20;;;;;;5040279;28;21206;-70
2022/08/21 07:30:18;;;;;;;7.33;4.73;;;19.50;69.20;;;;;;5037861;28;20217;-70
2022/08/21 07:32:43;;;;;;;10.40;5.30;;;19.50;68.80;;;;;;5039072;28;20219;-71
2022/08/21 07:35:09;;;;;;;9.53;5.20;;;19.60;68.60;;;;;;5040337;28;20192;-72
2022/08/21 07:37:35;;;;;;;9.20;6.00;;;19.70;68.50;;;;;;5038639;28;20262;-70
2022/08/21 07:40:00;;;;;;;7.93;5.20;;;19.80;68.30;;;;;;5043295;28;20307;-71
2022/08/21 07:42:26;;;;;;;9.10;4.83;;;19.80;68.30;;;;;;5039327;28;20200;-71
2022/08/21 07:44:51;;;;;;;7.77;4.67;;;19.90;68.00;;;;;;5039358;28;20194;-70
2022/08/21 07:47:17;;;;;;;7.60;4.60;;;20.10;67.50;;;;;;5043016;28;20235;-70
2022/08/21 07:49:43;;;;;;;8.87;5.17;;;20.20;67.30;;;;;;5042347;28;20667;-70
2022/08/21 07:52:08;;;;;;;15.97;5.63;;;20.30;66.90;;;;;;5046595;28;20190;-71
2022/08/21 07:54:34;;;;;;;8.13;5.07;;;20.20;67.20;;;;;;5047229;28;20856;-71
2022/08/21 07:56:59;;;;;;;7.03;4.50;;;20.20;67.30;;;;;;5037137;28;20195;-72
2022/08/21 07:59:25;;;;;;;10.57;5.60;;;20.30;67.00;;;;;;5040879;28;20721;-70
2022/08/21 08:01:51;;;;;;;11.33;5.50;;;20.40;65.80;;;;;;5036573;28;20186;-70
2022/08/21 08:04:17;;;;;;;12.57;5.70;;;20.50;65.70;;;;;;5041315;28;20429;-71
2022/08/21 08:06:43;;;;;;;7.90;4.90;;;20.50;65.80;;;;;;5041322;28;20219;-71
2022/08/21 08:09:08;;;;;;;7.40;4.90;;;20.60;66.30;;;;;;5045768;28;20788;-71
2022/08/21 08:11:37;;;;;;;9.10;5.90;;;20.60;66.00;;;;;;5044295;28;20276;-70
2022/08/21 08:14:03;;;;;;;10.73;5.23;;;20.60;65.70;;;;;;5048883;28;20529;-70
2022/08/21 08:16:29;;;;;;;9.87;4.70;;;20.70;64.80;;;;;;5046082;28;20416;-71
2022/08/21 08:18:55;;;;;;;12.23;6.27;;;20.90;64.80;;;;;;5042971;28;20478;-70
2022/08/21 08:21:21;;;;;;;9.63;5.17;;;21.00;63.70;;;;;;5037069;28;20201;-69
2022/08/21 08:23:47;;;;;;;8.77;5.03;;;21.10;63.80;;;;;;5039582;28;20935;-70
2022/08/21 08:26:15;;;;;;;10.90;5.20;;;21.20;63.20;;;;;;5034573;28;20465;-70
2022/08/21 08:28:41;;;;;;;9.70;5.30;;;21.20;62.90;;;;;;5042867;28;20539;-71
2022/08/21 08:31:06;;;;;;;8.03;5.33;;;21.20;62.20;;;;;;5042207;28;20511;-70
2022/08/21 08:33:32;;;;;;;9.40;5.47;;;21.30;61.90;;;;;;5041314;28;20195;-71
2022/08/21 08:35:57;;;;;;;6.90;4.97;;;21.40;61.30;;;;;;5038307;28;20186;-70
2022/08/21 08:38:24;;;;;;;11.70;5.30;;;21.40;61.50;;;;;;5039867;28;20187;-71
2022/08/21 08:41:14;;;;;;;7.20;5.30;;;21.60;60.70;;;;;;5040359;28;20204;-70
2022/08/21 08:43:48;;;;;;;8.70;5.20;;;21.70;60.70;;;;;;5036515;28;20430;-70
2022/08/21 08:46:18;;;;;;;7.40;4.60;;;21.70;60.60;;;;;;5041346;28;20472;-71
2022/08/21 08:48:58;;;;;;;11.57;5.03;;;21.80;58.80;;;;;;5040315;28;20572;-70
2022/08/21 08:51:34;;;;;;;12.53;5.70;;;21.80;58.20;;;;;;5040578;28;20792;-72
2022/08/21 08:54:04;;;;;;;10.67;5.60;;;21.90;58.90;;;;;;5043563;28;20475;-71
2022/08/21 08:56:33;;;;;;;8.80;4.77;;;21.90;59.10;;;;;;5045116;28;20843;-70
2022/08/21 08:59:06;;;;;;;8.80;5.00;;;22.00;59.20;;;;;;5034324;28;20823;-69
2022/08/21 09:01:32;;;;;;;9.90;4.80;;;22.00;59.50;;;;;;5042722;28;20562;-71
2022/08/21 09:03:59;;;;;;;11.83;5.63;;;22.00;59.30;;;;;;5041869;28;20452;-71
2022/08/21 09:06:30;;;;;;;12.77;5.87;;;22.10;58.80;;;;;;5040062;28;20216;-70
2022/08/21 09:09:11;;;;;;;8.13;4.90;;;22.10;60.40;;;;;;5036817;28;20458;-71
2022/08/21 09:11:55;;;;;;;9.37;4.97;;;22.10;60.40;;;;;;5041952;28;20437;-72
2022/08/21 09:14:28;;;;;;;14.17;5.40;;;22.20;59.60;;;;;;5043714;28;20503;-71
2022/08/21 09:16:57;;;;;;;9.17;5.00;;;22.30;60.40;;;;;;5038565;28;20436;-70
2022/08/21 09:19:34;;;;;;;9.23;5.40;;;22.40;58.90;;;;;;5039806;28;20541;-71
2022/08/21 09:22:51;;;;;;;8.57;5.50;;;22.40;58.10;;;;;;5037683;28;20457;-70
2022/08/21 09:25:36;;;;;;;10.03;5.40;;;22.50;57.00;;;;;;5054356;28;20440;-71
2022/08/21 09:28:01;;;;;;;9.63;4.90;;;22.70;57.00;;;;;;5057842;28;20612;-72
2022/08/21 09:30:30;;;;;;;12.50;5.13;;;22.90;56.90;;;;;;5058663;28;20942;-71
2022/08/21 09:32:56;;;;;;;11.73;4.93;;;23.00;56.80;;;;;;5061500;28;20203;-71
2022/08/21 09:35:24;;;;;;;8.37;5.10;;;23.10;56.00;;;;;;5058695;28;20437;-71
2022/08/21 09:37:57;;;;;;;16.90;5.93;;;23.10;56.20;;;;;;5051212;28;20992;-71
2022/08/21 09:40:32;;;;;;;8.00;4.73;;;23.10;56.50;;;;;;5058306;28;20503;-70
2022/08/21 09:43:04;;;;;;;11.47;5.70;;;23.20;56.20;;;;;;5061284;28;20429;-71
2022/08/21 09:45:32;;;;;;;8.43;4.77;;;23.10;54.20;;;;;;5062490;28;20823;-70
2022/08/21 09:48:23;;;;;;;9.40;4.70;;;23.10;52.60;;;;;;5059263;28;20467;-71
2022/08/21 09:50:49;;;;;;;12.50;5.07;;;23.10;54.20;;;;;;5060339;28;20434;-71
2022/08/21 09:53:30;;;;;;;10.53;4.47;;;23.20;53.40;;;;;;5054326;28;20428;-70
2022/08/21 09:58:50;;;;;;;10.47;4.80;;;23.20;53.20;;;;;;5046444;28;20953;-72
2022/08/21 10:01:22;;;;;;;6.33;4.13;;;23.30;53.20;;;;;;5040014;28;20416;-70
2022/08/21 10:03:49;;;;;;;10.87;5.70;;;23.40;53.30;;;;;;5035527;28;20436;-71
2022/08/21 10:06:26;;;;;;;7.73;4.80;;;23.60;53.60;;;;;;5045126;28;20480;-71
2022/08/21 10:09:08;;;;;;;10.90;5.60;;;23.80;53.40;;;;;;5035502;28;20460;-70
2022/08/21 10:11:34;;;;;;;8.63;4.93;;;23.90;53.00;;;;;;5040409;28;20921;-70
2022/08/21 10:14:03;;;;;;;8.70;5.10;;;23.90;52.50;;;;;;5039679;28;20893;-70
2022/08/21 10:16:41;;;;;;;7.87;5.37;;;23.90;52.20;;;;;;5042270;28;20418;-71
2022/08/21 10:19:16;;;;;;;11.20;5.10;;;23.90;52.10;;;;;;5044817;28;21294;-70
2022/08/21 10:22:16;;;;;;;8.30;4.80;;;23.80;52.10;;;;;;5044096;28;20435;-73
2022/08/21 10:25:05;;;;;;;11.07;4.77;;;23.80;52.60;;;;;;5045366;28;20446;-71
2022/08/21 10:27:54;;;;;;;10.90;5.00;;;24.00;52.00;;;;;;5041052;28;20461;-71
2022/08/21 10:30:42;;;;;;;9.00;4.80;;;24.10;51.70;;;;;;5038887;28;20879;-71
2022/08/21 10:33:28;;;;;;;8.63;5.30;;;24.00;51.60;;;;;;5049496;28;20409;-70
2022/08/21 10:36:03;;;;;;;11.07;5.60;;;24.10;51.70;;;;;;5040791;28;20426;-70
2022/08/21 10:38:49;;;;;;;8.97;5.90;;;24.30;51.60;;;;;;5047676;28;20435;-71
2022/08/21 10:41:27;;;;;;;10.07;5.20;;;24.50;50.10;;;;;;5038497;28;20834;-70
2022/08/21 10:44:01;;;;;;;10.33;5.00;;;24.70;49.70;;;;;;5042456;28;20421;-71
2022/08/21 10:46:55;;;;;;;8.83;5.37;;;25.00;49.00;;;;;;5037837;28;21439;-71
2022/08/21 10:49:36;;;;;;;9.10;4.70;;;25.20;48.20;;;;;;5039827;28;20460;-70
2022/08/21 10:52:14;;;;;;;10.40;5.10;;;25.40;47.50;;;;;;5039574;28;20495;-71
2022/08/21 10:54:50;;;;;;;11.10;5.23;;;25.60;47.00;;;;;;5051028;28;20428;-71
2022/08/21 10:57:24;;;;;;;9.03;5.40;;;25.30;47.00;;;;;;5042206;28;20414;-71
2022/08/21 10:59:57;;;;;;;7.23;5.00;;;25.30;47.40;;;;;;5040274;28;20520;-71
2022/08/21 11:02:35;;;;;;;11.10;6.13;;;25.60;46.70;;;;;;5038450;28;20409;-72
2022/08/21 11:05:10;;;;;;;8.33;4.60;;;25.70;46.20;;;;;;5036202;28;20410;-70
2022/08/21 11:07:41;;;;;;;8.37;4.93;;;26.10;46.10;;;;;;5038687;28;20468;-71
2022/08/21 11:10:20;;;;;;;7.33;4.60;;;26.30;45.10;;;;;;5038945;28;20466;-70
2022/08/21 11:13:12;;;;;;;11.30;5.40;;;26.60;45.00;;;;;;5041997;28;20472;-71
2022/08/21 11:15:52;;;;;;;12.67;5.60;;;26.80;44.60;;;;;;5033744;28;20500;-71
2022/08/21 11:18:22;;;;;;;13.80;5.73;;;26.80;43.80;;;;;;5038866;28;20484;-70
2022/08/21 11:21:09;;;;;;;5.40;4.20;;;27.10;43.90;;;;;;5049932;28;20434;-71
2022/08/21 11:23:49;;;;;;;7.97;5.70;;;26.90;44.10;;;;;;5043355;28;20414;-70
2022/08/21 11:26:20;;;;;;;8.60;4.93;;;27.40;42.80;;;;;;5043722;28;20472;-70
2022/08/21 11:29:16;;;;;;;7.10;4.57;;;26.70;44.30;;;;;;5039890;28;20451;-71
2022/08/21 11:32:12;;;;;;;7.40;4.60;;;26.90;43.90;;;;;;5045375;28;20430;-71
2022/08/21 11:35:10;;;;;;;10.70;4.97;;;27.40;43.20;;;;;;5046764;28;21145;-71
2022/08/21 11:37:48;;;;;;;11.30;5.57;;;27.30;42.80;;;;;;5039484;28;20443;-71
2022/08/21 11:40:13;;;;;;;8.53;5.77;;;26.70;43.90;;;;;;5043053;28;20453;-70
2022/08/21 11:42:48;;;;;;;8.60;5.10;;;26.80;43.90;;;;;;5034915;28;20766;-72
2022/08/21 11:45:44;;;;;;;10.43;5.30;;;26.80;43.90;;;;;;5044560;28;20665;-70
2022/08/21 11:48:32;;;;;;;9.57;5.30;;;27.20;43.20;;;;;;5040855;28;20434;-71
2022/08/21 11:51:00;;;;;;;8.67;4.77;;;27.60;42.40;;;;;;5043560;28;20428;-73
2022/08/21 11:53:34;;;;;;;7.40;4.27;;;27.90;41.60;;;;;;5041147;28;20465;-71
2022/08/21 11:56:07;;;;;;;10.20;5.00;;;28.10;41.20;;;;;;5039116;28;20483;-72
2022/08/21 11:58:41;;;;;;;7.97;4.70;;;28.00;40.80;;;;;;5042070;28;20451;-71
2022/08/21 12:01:21;;;;;;;6.63;4.73;;;28.20;40.80;;;;;;5034638;28;20942;-73
2022/08/21 12:04:04;;;;;;;5.73;4.17;;;28.70;39.20;;;;;;5040848;28;20759;-71
2022/08/21 12:06:39;;;;;;;7.20;4.30;;;28.30;39.80;;;;;;5040409;28;21026;-71
2022/08/21 12:09:30;;;;;;;9.40;5.13;;;28.40;40.30;;;;;;5039336;28;20446;-69
2022/08/21 12:12:29;;;;;;;7.20;4.47;;;29.00;39.00;;;;;;5035571;28;20428;-70
2022/08/21 12:15:24;;;;;;;7.50;4.60;;;28.80;39.00;;;;;;5037123;28;20465;-71
2022/08/21 12:18:28;;;;;;;8.97;5.10;;;28.50;39.40;;;;;;5043783;28;20443;-70
2022/08/21 12:21:20;;;;;;;10.17;5.37;;;28.70;39.40;;;;;;5041070;28;20523;-71
2022/08/21 12:23:58;;;;;;;7.03;5.10;;;29.00;38.40;;;;;;5043039;28;20784;-71
2022/08/21 12:26:31;;;;;;;7.63;4.53;;;28.80;38.70;;;;;;5042474;28;20474;-71
2022/08/21 12:29:29;;;;;;;6.97;4.70;;;28.20;39.50;;;;;;5039920;28;20478;-70
2022/08/21 12:32:01;;;;;;;9.20;5.20;;;27.30;40.80;;;;;;5045091;28;20415;-70
2022/08/21 12:34:46;;;;;;;6.43;4.60;;;26.70;41.90;;;;;;5040560;28;20430;-71
2022/08/21 12:37:35;;;;;;;7.80;4.27;;;26.50;42.40;;;;;;5038605;28;20418;-71
2022/08/21 12:40:03;;;;;;;11.30;4.47;;;26.90;42.00;;;;;;5036389;28;20796;-71
2022/08/21 12:42:41;;;;;;;6.80;4.80;;;26.80;41.90;;;;;;5041940;28;20440;-72
2022/08/21 12:45:21;;;;;;;9.03;5.87;;;26.60;42.00;;;;;;5037721;28;20436;-70
2022/08/21 12:48:08;;;;;;;12.40;5.43;;;26.30;43.10;;;;;;5036562;28;20470;-70
2022/08/21 12:50:40;;;;;;;7.47;4.43;;;26.30;43.00;;;;;;5041860;28;20453;-70
2022/08/21 12:53:14;;;;;;;7.67;4.30;;;26.40;43.00;;;;;;5036711;28;20417;-70
2022/08/21 12:55:42;;;;;;;7.23;4.60;;;26.70;42.20;;;;;;5045446;28;20512;-70
2022/08/21 12:58:20;;;;;;;6.97;4.40;;;26.90;42.20;;;;;;5036943;28;20432;-71
2022/08/21 13:01:24;;;;;;;8.63;4.73;;;26.90;41.90;;;;;;5043847;28;20437;-71
2022/08/21 13:03:54;;;;;;;8.50;4.63;;;27.50;40.60;;;;;;5039669;28;20863;-71
2022/08/21 13:06:22;;;;;;;7.10;5.40;;;27.60;40.30;;;;;;5036796;28;20806;-71